createdAt,value
2023-01-29T00:01:31.074Z,59.20
2023-01-29T00:03:33.250Z,59.10
2023-01-29T00:05:35.046Z,59.10
2023-01-29T00:07:36.643Z,59.00
2023-01-29T00:09:38.322Z,59.00
2023-01-29T00:11:40.633Z,59.10
2023-01-29T00:13:42.748Z,59.10
2023-01-29T00:15:53.546Z,59.20
2023-01-29T00:17:55.166Z,59.10
2023-01-29T00:19:56.888Z,58.90
2023-01-29T00:21:58.515Z,58.90
2023-01-29T00:24:00.349Z,59.00
2023-01-29T00:26:02.034Z,59.00
2023-01-29T00:28:03.785Z,59.10
2023-01-29T00:30:16.312Z,58.70
2023-01-29T00:34:34.945Z,59.10
2023-01-29T00:36:36.612Z,58.90
2023-01-29T00:38:38.719Z,58.90
2023-01-29T00:40:59.247Z,58.80
2023-01-29T00:43:19.445Z,58.70
2023-01-29T00:45:21.058Z,58.90
2023-01-29T00:47:33.501Z,59.00
2023-01-29T00:49:35.279Z,58.90
2023-01-29T00:51:37.912Z,59.00
2023-01-29T00:53:39.562Z,58.90
2023-01-29T00:55:41.182Z,59.00
2023-01-29T00:57:42.852Z,59.10
2023-01-29T00:59:44.650Z,59.00
2023-01-29T01:02:04.988Z,59.10
2023-01-29T01:04:06.669Z,59.10
2023-01-29T01:06:10.249Z,59.10
2023-01-29T01:08:35.112Z,59.20
2023-01-29T01:10:36.835Z,59.10
2023-01-29T01:12:39.586Z,59.10
2023-01-29T01:14:43.140Z,59.00
2023-01-29T01:16:45.150Z,59.20
2023-01-29T01:18:47.451Z,59.20
2023-01-29T01:20:51.585Z,59.00
2023-01-29T01:22:54.242Z,59.20
2023-01-29T01:24:55.866Z,59.20
2023-01-29T01:26:57.519Z,59.20
2023-01-29T01:28:59.719Z,59.70
2023-01-29T01:31:08.039Z,59.10
2023-01-29T01:33:09.804Z,59.00
2023-01-29T01:35:11.877Z,58.90
2023-01-29T01:37:13.738Z,59.00
2023-01-29T01:39:15.674Z,59.00
2023-01-29T01:41:19.400Z,59.00
2023-01-29T01:43:21.411Z,59.10
2023-01-29T01:45:23.128Z,59.10
2023-01-29T01:47:27.541Z,59.10
2023-01-29T01:49:29.590Z,59.00
2023-01-29T01:51:32.664Z,59.10
2023-01-29T01:53:40.945Z,59.00
2023-01-29T01:55:48.417Z,59.10
2023-01-29T01:57:52.315Z,59.00
2023-01-29T01:59:59.468Z,58.90
2023-01-29T02:02:19.746Z,58.80
2023-01-29T02:04:41.071Z,58.90
2023-01-29T02:07:01.911Z,58.90
2023-01-29T02:09:24.368Z,58.80
2023-01-29T02:11:25.982Z,59.00
2023-01-29T02:13:27.690Z,59.00
2023-01-29T02:15:29.381Z,59.00
2023-01-29T02:17:31.587Z,58.90
2023-01-29T02:19:36.263Z,59.10
2023-01-29T02:21:56.611Z,59.30
2023-01-29T02:23:58.392Z,59.40
2023-01-29T02:26:00.137Z,59.20
2023-01-29T02:28:01.716Z,59.00
2023-01-29T02:30:05.667Z,59.10
2023-01-29T02:32:14.260Z,59.00
2023-01-29T02:34:18.879Z,58.80
2023-01-29T02:36:20.487Z,58.90
2023-01-29T02:38:25.293Z,58.90
2023-01-29T02:40:33.273Z,59.00
2023-01-29T02:42:38.597Z,59.00
2023-01-29T02:44:58.946Z,59.00
2023-01-29T02:47:05.370Z,58.70
2023-01-29T02:49:23.308Z,58.80
2023-01-29T02:51:30.613Z,58.80
2023-01-29T02:53:41.180Z,58.80
2023-01-29T02:55:51.753Z,58.90
2023-01-29T02:57:55.694Z,58.90
2023-01-29T03:00:04.487Z,58.90
2023-01-29T03:02:11.389Z,58.90
2023-01-29T03:04:16.833Z,59.00
2023-01-29T03:06:33.152Z,58.70
2023-01-29T03:08:42.672Z,58.80
2023-01-29T03:10:51.777Z,59.00
2023-01-29T03:13:14.059Z,59.00
2023-01-29T03:15:25.131Z,59.00
2023-01-29T03:17:45.661Z,59.00
2023-01-29T03:19:48.180Z,59.10
2023-01-29T03:22:00.087Z,59.20
2023-01-29T03:24:25.079Z,59.10
2023-01-29T03:26:45.509Z,59.10
2023-01-29T03:29:06.448Z,59.20
2023-01-29T03:31:30.128Z,59.10
2023-01-29T03:33:36.664Z,59.00
2023-01-29T03:35:42.316Z,59.00
2023-01-29T03:37:46.101Z,59.10
2023-01-29T03:39:47.812Z,59.10
2023-01-29T03:41:58.778Z,59.10
2023-01-29T03:44:16.037Z,59.10
2023-01-29T03:46:23.120Z,59.00
2023-01-29T03:48:24.797Z,58.90
2023-01-29T03:50:45.237Z,59.10
2023-01-29T03:52:54.803Z,59.10
2023-01-29T03:55:01.064Z,59.20
2023-01-29T03:57:17.622Z,59.30
2023-01-29T03:59:30.952Z,59.10
2023-01-29T04:02:00.606Z,59.10
2023-01-29T04:04:09.641Z,59.20
2023-01-29T04:06:20.337Z,59.20
2023-01-29T04:08:34.021Z,59.30
2023-01-29T04:10:37.988Z,59.00
2023-01-29T04:12:43.507Z,59.20
2023-01-29T04:14:46.358Z,59.10
2023-01-29T04:16:50.322Z,59.10
2023-01-29T04:18:59.884Z,59.10
2023-01-29T04:21:07.410Z,59.10
2023-01-29T04:23:22.300Z,59.20
2023-01-29T04:25:26.897Z,59.10
2023-01-29T04:27:37.356Z,58.90
2023-01-29T04:29:47.664Z,58.90
2023-01-29T04:31:55.308Z,59.10
2023-01-29T04:34:12.705Z,59.10
2023-01-29T04:36:32.680Z,59.10
2023-01-29T04:38:40.444Z,59.20
2023-01-29T04:40:54.536Z,58.80
2023-01-29T04:42:56.227Z,58.50
2023-01-29T04:45:08.974Z,58.60
2023-01-29T04:47:10.627Z,58.70
2023-01-29T04:49:18.401Z,58.90
2023-01-29T04:51:24.378Z,59.10
2023-01-29T04:53:25.981Z,59.10
2023-01-29T04:55:46.423Z,59.10
2023-01-29T04:58:03.401Z,59.10
2023-01-29T05:00:14.593Z,59.10
2023-01-29T05:02:17.114Z,59.20
2023-01-29T05:04:20.381Z,59.20
2023-01-29T05:06:22.703Z,59.20
2023-01-29T05:08:25.601Z,59.10
2023-01-29T05:10:27.621Z,59.10
2023-01-29T05:12:30.236Z,59.10
2023-01-29T05:14:33.703Z,59.10
2023-01-29T05:16:41.977Z,59.10
2023-01-29T05:18:43.796Z,59.20
2023-01-29T05:20:46.715Z,59.20
2023-01-29T05:22:49.124Z,59.10
2023-01-29T05:24:50.749Z,59.10
2023-01-29T05:27:15.224Z,59.10
2023-01-29T05:29:21.511Z,59.10
2023-01-29T05:31:23.234Z,59.10
2023-01-29T05:33:28.688Z,59.10
2023-01-29T05:35:30.475Z,59.10
2023-01-29T05:37:32.103Z,59.10
2023-01-29T05:39:33.775Z,59.10
2023-01-29T05:41:35.428Z,59.10
2023-01-29T05:43:37.087Z,58.90
2023-01-29T05:45:38.802Z,58.90
2023-01-29T05:47:40.438Z,59.10
2023-01-29T05:49:42.113Z,59.10
2023-01-29T05:51:43.924Z,59.10
2023-01-29T05:53:45.501Z,59.20
2023-01-29T05:55:48.098Z,59.30
2023-01-29T05:57:49.727Z,59.30
2023-01-29T05:59:51.379Z,59.30
2023-01-29T06:01:53.148Z,59.10
2023-01-29T06:03:54.939Z,59.10
2023-01-29T06:05:56.592Z,59.20
2023-01-29T06:07:58.268Z,59.20
2023-01-29T06:09:59.860Z,59.10
2023-01-29T06:12:01.509Z,59.20
2023-01-29T06:14:03.215Z,59.30
2023-01-29T06:16:08.434Z,59.30
2023-01-29T06:18:10.145Z,59.30
2023-01-29T06:20:11.934Z,59.30
2023-01-29T06:22:13.533Z,59.10
2023-01-29T06:24:15.304Z,59.00
2023-01-29T06:26:16.970Z,59.10
2023-01-29T06:28:18.571Z,59.00
2023-01-29T06:30:20.295Z,58.80
2023-01-29T06:32:22.055Z,58.80
2023-01-29T06:34:23.744Z,58.90
2023-01-29T06:36:25.431Z,58.80
2023-01-29T06:38:27.030Z,58.80
2023-01-29T06:40:28.698Z,58.90
2023-01-29T06:42:30.350Z,59.00
2023-01-29T06:44:32.005Z,59.10
2023-01-29T06:46:33.620Z,59.20
2023-01-29T06:48:37.550Z,59.20
2023-01-29T06:50:39.169Z,59.10
2023-01-29T06:52:40.773Z,59.10
2023-01-29T06:54:42.404Z,59.00
2023-01-29T06:56:44.040Z,59.00
2023-01-29T06:58:45.629Z,59.10
2023-01-29T07:00:47.323Z,59.00
2023-01-29T07:02:49.606Z,59.10
2023-01-29T07:04:51.245Z,59.00
2023-01-29T07:06:52.851Z,59.00
2023-01-29T07:08:54.577Z,59.10
2023-01-29T07:11:00.902Z,59.00
2023-01-29T07:13:02.588Z,59.00
2023-01-29T07:15:04.464Z,59.00
2023-01-29T07:17:06.154Z,58.90
2023-01-29T07:19:07.789Z,59.10
2023-01-29T07:21:09.458Z,59.10
2023-01-29T07:23:12.785Z,59.10
2023-01-29T07:25:14.434Z,59.10
2023-01-29T07:27:16.056Z,59.10
2023-01-29T07:29:17.673Z,59.10
2023-01-29T07:31:19.534Z,59.10
2023-01-29T07:33:21.215Z,59.10
2023-01-29T07:35:22.924Z,59.00
2023-01-29T07:37:24.515Z,58.90
2023-01-29T07:39:26.139Z,58.90
2023-01-29T07:41:27.770Z,59.00
2023-01-29T07:43:30.209Z,59.10
2023-01-29T07:45:33.439Z,59.10
2023-01-29T07:47:35.098Z,59.10
2023-01-29T07:49:36.746Z,58.90
2023-01-29T07:51:38.395Z,59.00
2023-01-29T07:53:40.182Z,59.10
2023-01-29T07:55:45.317Z,59.00
2023-01-29T07:57:47.149Z,59.00
2023-01-29T07:59:48.792Z,59.00
2023-01-29T08:01:50.384Z,59.10
2023-01-29T08:03:52.060Z,59.10
2023-01-29T08:05:53.687Z,59.10
2023-01-29T08:08:06.223Z,59.10
2023-01-29T08:10:09.235Z,59.00
2023-01-29T08:12:10.874Z,59.00
2023-01-29T08:14:12.579Z,59.10
2023-01-29T08:16:14.485Z,59.10
2023-01-29T08:18:16.151Z,59.10
2023-01-29T08:20:18.881Z,59.10
2023-01-29T08:22:20.714Z,59.80
2023-01-29T08:24:22.335Z,59.10
2023-01-29T08:26:26.224Z,59.20
2023-01-29T08:28:27.906Z,59.30
2023-01-29T08:30:30.677Z,59.30
2023-01-29T08:32:32.336Z,59.30
2023-01-29T08:34:34.037Z,59.20
2023-01-29T08:36:35.857Z,59.20
2023-01-29T08:38:37.522Z,60.00
2023-01-29T08:40:39.197Z,59.40
2023-01-29T08:42:41.528Z,59.40
2023-01-29T08:44:43.311Z,59.10
2023-01-29T08:46:44.891Z,58.90
2023-01-29T08:48:46.712Z,59.10
2023-01-29T08:50:48.389Z,59.10
2023-01-29T08:52:50.029Z,59.10
2023-01-29T08:54:51.638Z,59.10
2023-01-29T08:56:53.280Z,59.00
2023-01-29T08:58:54.914Z,59.10
2023-01-29T09:00:56.610Z,59.20
2023-01-29T09:02:59.674Z,59.30
2023-01-29T09:05:01.386Z,59.30
2023-01-29T09:07:03.006Z,59.20
2023-01-29T09:09:04.710Z,59.10
2023-01-29T09:11:08.243Z,59.20
2023-01-29T09:13:10.063Z,59.20
2023-01-29T09:15:12.007Z,58.70
2023-01-29T09:17:13.728Z,58.80
2023-01-29T09:19:15.388Z,58.70
2023-01-29T09:21:17.385Z,58.60
2023-01-29T09:23:19.195Z,58.60
2023-01-29T09:25:20.905Z,58.40
2023-01-29T09:27:22.788Z,58.50
2023-01-29T09:29:24.406Z,58.40
2023-01-29T09:31:26.272Z,58.40
2023-01-29T09:33:28.045Z,58.50
2023-01-29T09:35:29.727Z,58.70
2023-01-29T09:37:31.462Z,58.50
2023-01-29T09:39:35.748Z,58.50
2023-01-29T09:41:46.218Z,58.50
2023-01-29T09:43:49.949Z,58.60
2023-01-29T09:45:58.227Z,58.70
2023-01-29T09:48:01.910Z,58.80
2023-01-29T09:50:08.354Z,58.80
2023-01-29T09:52:21.559Z,58.80
2023-01-29T09:54:25.592Z,58.80
2023-01-29T09:56:29.022Z,58.70
2023-01-29T09:58:35.654Z,58.40
2023-01-29T10:00:55.442Z,58.50
2023-01-29T10:03:12.163Z,58.60
2023-01-29T10:05:32.232Z,58.70
2023-01-29T10:07:58.051Z,58.70
2023-01-29T10:10:18.708Z,58.70
2023-01-29T10:12:38.917Z,58.70
2023-01-29T10:14:43.592Z,58.70
2023-01-29T10:17:03.979Z,58.70
2023-01-29T10:19:24.539Z,58.60
2023-01-29T10:21:45.018Z,58.70
2023-01-29T10:23:57.189Z,58.60
2023-01-29T10:25:58.936Z,58.70
2023-01-29T10:28:01.533Z,58.70
2023-01-29T10:30:05.845Z,58.50
2023-01-29T10:32:11.750Z,58.20
2023-01-29T10:34:16.258Z,58.10
2023-01-29T10:36:22.722Z,57.30
2023-01-29T10:38:29.710Z,56.70
2023-01-29T10:40:34.411Z,56.50
2023-01-29T10:42:41.177Z,56.80
2023-01-29T10:44:42.771Z,56.70
2023-01-29T10:46:44.413Z,57.00
2023-01-29T10:48:55.533Z,56.90
2023-01-29T10:51:15.562Z,56.90
2023-01-29T10:53:36.253Z,56.80
2023-01-29T10:55:37.928Z,57.20
2023-01-29T10:57:42.668Z,57.00
2023-01-29T10:59:44.312Z,57.10
2023-01-29T11:01:46.189Z,57.40
2023-01-29T11:03:54.907Z,57.80
2023-01-29T11:06:11.891Z,58.00
2023-01-29T11:08:16.912Z,58.30
2023-01-29T11:10:20.515Z,58.50
2023-01-29T11:12:26.516Z,58.50
2023-01-29T11:14:42.538Z,58.60
2023-01-29T11:16:46.852Z,58.50
2023-01-29T11:18:55.540Z,58.70
2023-01-29T11:21:02.634Z,58.50
2023-01-29T11:23:05.682Z,58.50
2023-01-29T11:25:10.415Z,58.30
2023-01-29T11:27:26.431Z,58.40
2023-01-29T11:29:38.934Z,58.50
2023-01-29T11:31:40.811Z,58.30
2023-01-29T11:33:42.845Z,58.40
2023-01-29T11:35:44.627Z,58.60
2023-01-29T11:37:47.054Z,58.40
2023-01-29T11:39:48.681Z,58.30
2023-01-29T11:41:53.638Z,58.40
2023-01-29T11:43:59.265Z,58.50
2023-01-29T11:46:05.761Z,58.40
2023-01-29T11:48:14.190Z,58.20
2023-01-29T11:50:21.710Z,57.80
2023-01-29T11:52:33.845Z,57.70
2023-01-29T11:54:44.285Z,57.70
2023-01-29T11:56:46.946Z,57.50
2023-01-29T11:58:49.888Z,57.60
2023-01-29T12:00:52.440Z,57.40
2023-01-29T12:03:12.883Z,57.60
2023-01-29T12:05:16.742Z,57.40
2023-01-29T12:07:18.824Z,57.20
2023-01-29T12:09:30.052Z,57.00
2023-01-29T12:11:32.793Z,56.60
2023-01-29T12:13:36.062Z,56.70
2023-01-29T12:15:38.840Z,56.70
2023-01-29T12:17:40.924Z,56.90
2023-01-29T12:19:51.311Z,56.50
2023-01-29T12:22:00.247Z,56.40
2023-01-29T12:24:19.456Z,56.30
2023-01-29T12:26:25.632Z,56.20
2023-01-29T12:28:32.858Z,55.90
2023-01-29T12:30:34.549Z,55.70
2023-01-29T12:32:44.829Z,55.20
2023-01-29T12:34:46.643Z,55.90
2023-01-29T12:36:53.312Z,55.60
2023-01-29T12:38:55.579Z,55.70
2023-01-29T12:41:05.156Z,55.60
2023-01-29T12:43:11.981Z,55.70
2023-01-29T12:49:13.351Z,55.90
2023-01-29T12:51:44.034Z,55.50
2023-01-29T12:53:45.751Z,55.70
2023-01-29T12:55:49.690Z,56.00
2023-01-29T12:58:05.130Z,56.00
2023-01-29T13:00:26.972Z,55.40
2023-01-29T13:02:48.268Z,55.60
2023-01-29T13:04:59.208Z,55.40
2023-01-29T13:07:18.915Z,55.40
2023-01-29T13:09:22.206Z,55.60
2023-01-29T13:11:23.857Z,55.20
2023-01-29T13:13:34.603Z,55.30
2023-01-29T13:15:40.674Z,55.70
2023-01-29T13:17:47.923Z,55.40
2023-01-29T13:19:51.260Z,55.50
2023-01-29T13:21:54.460Z,55.20
2023-01-29T13:24:04.474Z,54.70
2023-01-29T13:26:06.329Z,54.80
2023-01-29T13:28:16.255Z,55.30
2023-01-29T13:30:25.016Z,55.60
2023-01-29T13:32:28.568Z,55.80
2023-01-29T13:34:31.631Z,55.50
2023-01-29T13:36:33.875Z,55.60
2023-01-29T13:38:36.390Z,55.80
2023-01-29T13:40:38.455Z,54.90
2023-01-29T13:42:44.042Z,55.50
2023-01-29T13:44:50.248Z,55.80
2023-01-29T13:46:56.819Z,55.70
2023-01-29T13:49:00.981Z,55.20
2023-01-29T13:51:04.533Z,55.60
2023-01-29T13:53:08.254Z,55.20
2023-01-29T13:55:21.683Z,55.20
2023-01-29T13:57:41.919Z,55.40
2023-01-29T13:59:49.350Z,55.60
2023-01-29T14:01:51.093Z,55.20
2023-01-29T14:04:04.868Z,55.30
2023-01-29T14:06:07.178Z,55.50
2023-01-29T14:08:08.813Z,55.40
2023-01-29T14:10:21.049Z,55.70
2023-01-29T14:12:22.759Z,55.80
2023-01-29T14:14:43.495Z,55.80
2023-01-29T14:16:46.028Z,55.80
2023-01-29T14:18:47.810Z,56.00
2023-01-29T14:20:52.149Z,55.70
2023-01-29T14:22:57.716Z,55.60
2023-01-29T14:25:04.997Z,55.60
2023-01-29T14:27:19.274Z,55.60
2023-01-29T14:29:33.784Z,55.50
2023-01-29T14:31:36.393Z,55.50
2023-01-29T14:33:41.021Z,55.40
2023-01-29T14:35:49.119Z,54.30
2023-01-29T14:37:52.876Z,55.40
2023-01-29T14:39:57.549Z,55.00
2023-01-29T14:41:59.859Z,54.30
2023-01-29T14:44:20.149Z,54.60
2023-01-29T14:46:42.098Z,54.20
2023-01-29T14:48:48.588Z,54.80
2023-01-29T14:50:51.401Z,55.30
2023-01-29T14:52:54.084Z,55.40
2023-01-29T14:54:59.531Z,55.30
2023-01-29T14:57:05.051Z,55.50
2023-01-29T14:59:18.801Z,55.60
2023-01-29T15:01:26.702Z,55.60
2023-01-29T15:03:28.508Z,55.60
2023-01-29T15:05:37.068Z,55.70
2023-01-29T15:07:46.966Z,55.80
2023-01-29T15:09:48.733Z,55.60
2023-01-29T15:12:02.020Z,55.50
2023-01-29T15:14:11.340Z,55.60
2023-01-29T15:16:39.086Z,55.60
2023-01-29T15:18:41.790Z,55.60
2023-01-29T15:20:44.108Z,55.30
2023-01-29T15:22:45.922Z,55.30
2023-01-29T15:25:01.413Z,55.30
2023-01-29T15:27:03.493Z,55.00
2023-01-29T15:29:05.933Z,55.20
2023-01-29T15:31:13.220Z,55.20
2023-01-29T15:33:15.066Z,55.20
2023-01-29T15:35:31.788Z,55.30
2023-01-29T15:37:34.922Z,54.70
2023-01-29T15:39:42.636Z,55.00
2023-01-29T15:41:44.948Z,55.30
2023-01-29T15:43:48.192Z,55.40
2023-01-29T15:45:51.143Z,55.50
2023-01-29T15:47:57.895Z,55.20
2023-01-29T15:50:00.108Z,55.30
2023-01-29T15:52:07.728Z,55.40
2023-01-29T15:54:15.916Z,55.70
2023-01-29T15:56:18.987Z,55.70
2023-01-29T15:58:24.260Z,55.70
2023-01-29T16:00:27.655Z,55.70
2023-01-29T16:02:38.433Z,55.90
2023-01-29T16:04:40.679Z,56.10
2023-01-29T16:06:42.883Z,56.00
2023-01-29T16:08:49.846Z,56.20
2023-01-29T16:10:56.302Z,56.00
2023-01-29T16:12:59.920Z,56.20
2023-01-29T16:15:03.394Z,56.20
2023-01-29T16:17:24.084Z,56.30
2023-01-29T16:19:29.605Z,56.50
2023-01-29T16:21:39.735Z,56.50
2023-01-29T16:23:42.584Z,56.50
2023-01-29T16:25:44.473Z,56.50
2023-01-29T16:27:46.278Z,56.50
2023-01-29T16:29:50.538Z,56.60
2023-01-29T16:32:00.412Z,56.60
2023-01-29T16:34:10.168Z,56.60
2023-01-29T16:36:22.595Z,56.70
2023-01-29T16:38:28.481Z,56.90
2023-01-29T16:40:34.367Z,57.00
2023-01-29T16:42:37.704Z,57.00
2023-01-29T16:44:42.099Z,57.00
2023-01-29T16:46:48.358Z,57.00
2023-01-29T16:48:50.744Z,56.90
2023-01-29T16:51:02.814Z,57.00
2023-01-29T16:53:11.947Z,57.10
2023-01-29T16:55:21.091Z,57.00
2023-01-29T16:57:28.381Z,57.30
2023-01-29T16:59:37.046Z,57.30
2023-01-29T17:01:40.324Z,57.50
2023-01-29T17:03:42.374Z,57.70
2023-01-29T17:05:44.411Z,57.80
2023-01-29T17:07:46.392Z,57.90
2023-01-29T17:09:53.626Z,57.90
2023-01-29T17:11:57.378Z,57.80
2023-01-29T17:13:59.334Z,57.90
2023-01-29T17:16:05.070Z,57.90
2023-01-29T17:18:16.876Z,57.80
2023-01-29T17:20:18.641Z,57.80
2023-01-29T17:22:20.439Z,57.90
2023-01-29T17:24:22.322Z,58.00
2023-01-29T17:26:24.860Z,58.00
2023-01-29T17:28:26.718Z,58.10
2023-01-29T17:30:31.029Z,58.10
2023-01-29T17:32:44.374Z,58.10
2023-01-29T17:34:47.011Z,58.10
2023-01-29T17:36:48.868Z,58.20
2023-01-29T17:38:50.546Z,58.10
2023-01-29T17:40:54.327Z,58.10
2023-01-29T17:42:56.063Z,58.20
2023-01-29T17:44:57.855Z,58.20
2023-01-29T17:46:59.875Z,58.20
2023-01-29T17:49:02.830Z,58.30
2023-01-29T17:51:04.712Z,58.50
2023-01-29T17:53:06.597Z,58.40
2023-01-29T17:55:08.565Z,58.40
2023-01-29T17:57:13.344Z,58.60
2023-01-29T17:59:25.313Z,58.60
2023-01-29T18:01:27.132Z,58.70
2023-01-29T18:03:29.886Z,58.70
2023-01-29T18:05:31.729Z,58.70
2023-01-29T18:07:33.515Z,58.70
2023-01-29T18:09:35.783Z,58.70
2023-01-29T18:11:37.619Z,58.70
2023-01-29T18:13:41.911Z,58.70
2023-01-29T18:15:43.805Z,58.80
2023-01-29T18:17:45.602Z,58.80
2023-01-29T18:19:47.385Z,58.70
2023-01-29T18:21:50.272Z,58.70
2023-01-29T18:23:52.058Z,58.70
2023-01-29T18:25:57.593Z,58.80
2023-01-29T18:27:59.427Z,58.90
2023-01-29T18:30:01.241Z,59.00
2023-01-29T18:32:04.008Z,59.00
2023-01-29T18:34:05.889Z,59.10
2023-01-29T18:36:10.928Z,59.00
2023-01-29T18:38:12.710Z,58.90
2023-01-29T18:40:22.374Z,58.90
2023-01-29T18:42:24.753Z,59.00
2023-01-29T18:44:28.667Z,59.00
2023-01-29T18:46:30.676Z,59.10
2023-01-29T18:48:32.753Z,58.90
2023-01-29T18:50:35.141Z,58.90
2023-01-29T18:52:47.398Z,58.90
2023-01-29T18:54:52.054Z,59.10
2023-01-29T18:57:08.751Z,59.10
2023-01-29T18:59:18.672Z,59.10
2023-01-29T19:01:24.020Z,59.10
2023-01-29T19:03:27.250Z,59.10
2023-01-29T19:05:33.208Z,59.20
2023-01-29T19:07:35.712Z,59.10
2023-01-29T19:09:39.076Z,59.00
2023-01-29T19:11:42.937Z,59.00
2023-01-29T19:13:52.764Z,59.10
2023-01-29T19:15:55.783Z,59.10
2023-01-29T19:18:00.797Z,59.30
2023-01-29T19:20:08.118Z,59.30
2023-01-29T19:22:11.714Z,59.30
2023-01-29T19:24:14.949Z,59.20
2023-01-29T19:26:19.225Z,59.20
2023-01-29T19:28:25.073Z,59.20
2023-01-29T19:30:28.429Z,59.30
2023-01-29T19:32:39.614Z,59.20
2023-01-29T19:34:45.029Z,59.20
2023-01-29T19:36:51.696Z,59.40
2023-01-29T19:39:01.174Z,59.60
2023-01-29T19:41:05.837Z,59.80
2023-01-29T19:43:17.935Z,59.50
2023-01-29T19:45:43.143Z,59.40
2023-01-29T19:48:02.317Z,59.50
2023-01-29T19:50:11.736Z,59.40
2023-01-29T19:52:51.217Z,59.40
2023-01-29T19:54:56.557Z,59.40
2023-01-29T19:56:58.535Z,59.50
2023-01-29T19:59:01.604Z,59.40
2023-01-29T20:01:08.714Z,59.50
2023-01-29T20:03:13.658Z,59.60
2023-01-29T20:05:22.581Z,59.50
2023-01-29T20:07:33.792Z,59.50
2023-01-29T20:09:43.882Z,59.50
2023-01-29T20:11:51.360Z,59.70
2023-01-29T20:14:05.866Z,59.70
2023-01-29T20:16:22.671Z,59.70
2023-01-29T20:18:33.587Z,59.70
2023-01-29T20:20:46.284Z,59.70
2023-01-29T20:23:00.202Z,59.70
2023-01-29T20:25:10.362Z,60.00
2023-01-29T20:27:29.083Z,60.80
2023-01-29T20:29:48.222Z,60.10
2023-01-29T20:32:11.154Z,60.30
2023-01-29T20:34:56.927Z,60.10
2023-01-29T20:37:30.192Z,60.20
2023-01-29T20:39:48.685Z,60.10
2023-01-29T20:41:55.668Z,60.20
2023-01-29T20:44:04.709Z,60.10
2023-01-29T20:46:22.109Z,60.20
2023-01-29T20:48:33.434Z,60.10
2023-01-29T20:50:44.472Z,60.10
2023-01-29T20:52:50.405Z,60.40
2023-01-29T20:54:55.575Z,60.60
2023-01-29T20:57:00.928Z,60.50
2023-01-29T20:59:03.903Z,60.40
2023-01-29T21:01:16.936Z,60.50
2023-01-29T21:03:20.310Z,60.50
2023-01-29T21:05:24.382Z,60.50
2023-01-29T21:07:29.771Z,60.60
2023-01-29T21:09:34.239Z,60.70
2023-01-29T21:11:40.177Z,60.50
2023-01-29T21:13:47.114Z,60.50
2023-01-29T21:15:54.118Z,60.30
2023-01-29T21:18:02.237Z,60.40
2023-01-29T21:20:12.124Z,60.90
2023-01-29T21:22:14.522Z,60.90
2023-01-29T21:24:19.974Z,60.80
2023-01-29T21:26:23.972Z,60.90
2023-01-29T21:28:29.732Z,60.90
2023-01-29T21:30:34.514Z,60.80
2023-01-29T21:32:38.274Z,60.90
2023-01-29T21:34:43.773Z,60.80
2023-01-29T21:36:47.319Z,60.70
2023-01-29T21:38:51.350Z,60.50
2023-01-29T21:40:58.717Z,60.40
2023-01-29T21:43:13.615Z,60.20
2023-01-29T21:45:15.877Z,60.30
2023-01-29T21:47:17.818Z,60.30
2023-01-29T21:49:20.516Z,60.10
2023-01-29T21:51:23.997Z,60.10
2023-01-29T21:53:26.972Z,60.20
2023-01-29T21:55:32.462Z,60.50
2023-01-29T21:57:35.633Z,60.60
2023-01-29T21:59:38.645Z,60.70
2023-01-29T22:01:41.286Z,60.70
2023-01-29T22:03:46.939Z,60.80
2023-01-29T22:05:50.709Z,60.90
2023-01-29T22:07:53.894Z,60.70
2023-01-29T22:09:57.394Z,60.50
2023-01-29T22:12:00.402Z,60.50
2023-01-29T22:14:04.074Z,60.50
2023-01-29T22:16:06.923Z,60.40
2023-01-29T22:18:09.876Z,60.30
2023-01-29T22:20:14.186Z,60.30
2023-01-29T22:22:17.223Z,60.30
2023-01-29T22:24:20.507Z,60.30
2023-01-29T22:26:22.641Z,60.40
2023-01-29T22:28:26.023Z,60.50
2023-01-29T22:30:29.168Z,60.50
2023-01-29T22:32:33.214Z,60.30
2023-01-29T22:34:36.850Z,60.10
2023-01-29T22:36:39.754Z,60.10
2023-01-29T22:38:43.804Z,60.20
2023-01-29T22:40:51.112Z,60.30
2023-01-29T22:42:54.012Z,60.30
2023-01-29T22:44:56.084Z,60.30
2023-01-29T22:46:58.881Z,60.40
2023-01-29T22:49:01.275Z,60.40
2023-01-29T22:51:13.798Z,60.50
2023-01-29T22:53:15.655Z,60.40
2023-01-29T22:55:17.844Z,60.30
2023-01-29T22:57:19.914Z,60.30
2023-01-29T22:59:22.323Z,60.20
2023-01-29T23:01:25.688Z,60.10
2023-01-29T23:03:27.487Z,60.10
2023-01-29T23:05:29.142Z,60.20
2023-01-29T23:07:30.787Z,60.40
2023-01-29T23:09:32.456Z,60.50
2023-01-29T23:11:34.071Z,60.80
2023-01-29T23:13:35.707Z,60.80
2023-01-29T23:15:37.338Z,61.00
2023-01-29T23:17:39.692Z,60.90
2023-01-29T23:19:41.381Z,60.80
2023-01-29T23:21:43.426Z,61.00
2023-01-29T23:23:45.350Z,60.90
2023-01-29T23:26:05.851Z,61.00
2023-01-29T23:28:07.549Z,61.10
2023-01-29T23:30:09.524Z,61.30
2023-01-29T23:32:12.537Z,61.50
2023-01-29T23:34:15.029Z,61.40
2023-01-29T23:36:16.914Z,61.10
2023-01-29T23:38:18.555Z,60.80
2023-01-29T23:40:20.212Z,60.50
2023-01-29T23:42:21.927Z,60.50
2023-01-29T23:44:23.738Z,60.50
2023-01-29T23:46:25.561Z,60.50
2023-01-29T23:48:27.357Z,60.30
2023-01-29T23:50:29.021Z,60.50
2023-01-29T23:52:30.669Z,60.50
2023-01-29T23:54:32.311Z,60.30
2023-01-29T23:56:34.215Z,60.20
2023-01-29T23:58:35.931Z,60.10
